Dakin Peak, Santa Catalina Island Weather observations

Data are for 10 minute period ending at time listed.
 Day   Time   Solar   Ave.   Ave.  Ave.  Vector    Max.   Stn.    Total
  of    of     Rad.   Air    Rel.  Wind   Wind     Wind   Baro.  Precip.
Year   Day            Temp.  Hum.  Speed  Dir.     Gust   Pres.         
2016   (PST)   W/m2    F      %     mph   deg.      mph    mb.     in.  
------------------------------------------------------------------------
 151   17:10  241.0    59   83.8     9    259.7    17.9    999.0   0.00  
 151   17:20  214.0    58   85.5    15    261.6    37.6    999.0   0.00  
 151   17:30  187.0    57   88.9     1    260.8    19.7    999.0   0.00  
 151   17:40  161.0    57   88.8     3    263.2    34.6    999.0   0.00  
 151   17:50  135.0    57   88.3    10    263.6    40.5    999.0   0.00  
 151   18:00  110.0    56   89.1    13    264.4    37.0    999.0   0.00  
 151   18:10   87.0    56   89.6     8    264.1    23.9    999.0   0.00  
 151   18:20   63.0    56   89.9     6    268.1    10.8    999.0   0.00  
 151   18:30   41.0    55   90.9     2    264.5    15.5    999.0   0.00  
 151   18:40   25.0    54   92.3     0      0.0     0.0    999.0   0.00  
 151   18:50   10.0    54   93.5     0      0.0     0.0    999.0   0.00  
 151   19:00    5.0    53   94.2     0      0.0     0.0    999.0   0.00  
 151   19:10    1.0    53   94.4     0      0.0     0.0    999.0   0.00  
 151   19:20    0.0    53   94.8     0      0.0     0.0    999.0   0.00  
 151   19:30    0.0    53   95.2     0      0.0     0.0    999.0   0.00  
 151   19:40    0.0    53   94.8     0      0.0     0.0    999.0   0.00  
 151   19:50    0.0    53   94.5     0      0.0     0.0    999.0   0.00  
 151   20:00    0.0    53   95.3     0    230.1     1.2    999.0   0.00  
 151   20:10    0.0    53   95.3     1    270.7     2.4    999.0   0.00  
 151   20:20    0.0    53   95.6     2    269.5     3.0    999.0   0.00  
 151   20:30    0.0    53   95.8     2    221.0     3.0    999.0   0.00  
 151   20:40    0.0    53   95.6     1    269.4     3.0    999.0   0.00  
 151   20:50    0.0    54   96.3     1     65.5     3.0    999.0   0.00  
 151   21:00    0.0    54   96.6     2    100.0     3.0    999.0   0.00  
 151   21:10    0.0    53   96.8     4    103.8     5.4    999.0   0.00  
 151   21:20    0.0    53   97.1     3    111.9     4.8    999.0   0.00  
 151   21:30    0.0    53   97.3     4    103.0     6.0    999.0   0.00  
 151   21:40    0.0    54   97.6     5     98.5     7.2    999.0   0.00  
 151   21:50    0.0    54   97.8     5    110.7     7.2    999.0   0.00  
 151   22:00    0.0    54   97.9     4    124.7     6.0    999.0   0.00  
 151   22:10    0.0    54   98.0     5    122.4     8.4    999.0   0.00  
 151   22:20    0.0    54   98.1     5    130.1     7.2    999.0   0.00  
 151   22:30    0.0    54   98.1     6    130.0     9.0    999.0   0.00  
 151   22:40    0.0    54   98.2     4    132.8     6.6    999.0   0.00  
 151   22:50    0.0    54   98.2     4    127.2     6.0    999.0   0.00  
 151   23:00    0.0    54   98.3     4    114.2     6.0    999.0   0.00  
 151   23:10    0.0    54   98.3     5    120.5     7.2    999.0   0.00  
 151   23:20    0.0    53   98.3     5    123.9     7.2    999.0   0.00  
 151   23:30    0.0    53   98.4     5    114.3     7.8    999.0   0.00  
 151   23:40    0.0    53   98.4     6    122.1     9.0    999.0   0.00  
 151   23:50    0.0    53   98.5     6    116.8     7.8    999.0   0.00  
 152    0:00    0.0    54   98.5     5    111.5     6.6    999.0   0.00  
 152    0:10    0.0    54   98.5     4    114.2     6.0    999.0   0.00  
 152    0:20    0.0    53   98.5     4    117.3     7.8    999.0   0.00  
 152    0:30    0.0    53   98.5     6    110.4     7.2    999.0   0.00  
 152    0:40    0.0    54   98.6     4    121.1     5.4    999.0   0.00  
 152    0:50    0.0    53   98.6     3    120.9     4.8    999.0   0.00  
 152    1:00    0.0    54   98.6     4    115.7     6.0    999.0   0.00  
 152    1:10    0.0    53   98.6     4    123.5     6.0    999.0   0.00  
 152    1:20    0.0    53   98.6     4    127.0     6.0    999.0   0.00  
 152    1:30    0.0    53   98.6     4    110.5     5.4    999.0   0.00  
 152    1:40    0.0    53   98.7     3    116.3     5.4    999.0   0.00  
 152    1:50    0.0    53   98.7     3    118.9     5.4    999.0   0.00  
 152    2:00    0.0    53   98.7     3    146.7     5.4    999.0   0.00  
 152    2:10    0.0    53   98.7     2    136.7     4.2    999.0   0.00  
 152    2:20    0.0    53   98.7     2    123.8     5.4    999.0   0.00  
 152    2:30    0.0    53   98.7     4    102.3     5.4    999.0   0.00  
 152    2:40    0.0    53   98.7     5    109.1     6.6    999.0   0.00  
 152    2:50    0.0    53   98.8     4    113.3     6.6    999.0   0.00  
 152    3:00    0.0    53   98.8     4    108.2     6.0    999.0   0.00  
 152    3:10    0.0    53   98.8     5    120.5     7.2    999.0   0.00  
 152    3:20    0.0    53   98.8     4    128.0     5.4    999.0   0.00  
 152    3:30    0.0    53   98.8     3    121.3     4.8    999.0   0.00  
 152    3:40    0.0    53   98.8     4    145.9     6.0    999.0   0.00  
 152    3:50    0.0    53   98.8     3    156.2     4.8    999.0   0.00  
 152    4:00    0.0    53   98.8     3    174.3     5.4    999.0   0.00  
 152    4:10    0.0    53   98.8     3    178.9     5.4    999.0   0.00  
 152    4:20    0.0    53   98.8     2    191.5     3.0    999.0   0.00  
 152    4:30    0.0    53   98.9     2    189.4     4.8    999.0   0.00  
 152    4:40    0.0    53   98.9     2    153.3     4.2    999.0   0.00  
 152    4:50    0.0    53   98.9     2    145.8     4.2    999.0   0.00  
 152    5:00    3.0    53   98.9     2    116.0     4.8    999.0   0.00  
 152    5:10    5.0    53   98.9     3    182.5     6.0    999.0   0.00  
 152    5:20    8.0    53   98.9     3    149.8     5.4    999.0   0.00  
 152    5:30   13.0    53   98.9     3    142.9     5.4    999.0   0.00  
 152    5:40   17.0    53   98.9     4    143.7     6.0    999.0   0.00  
 152    5:50   20.0    53   98.9     4    161.8     6.0    999.0   0.00  
 152    6:00   29.0    53   98.9     4    175.8     7.8    999.0   0.00  
 152    6:10   34.0    53   98.9     4    177.4     7.2    999.0   0.00  
 152    6:20   39.0    54   99.0     3    157.2     5.4    999.0   0.00  
 152    6:30   55.0    54   99.0     2    190.5     4.8    999.0   0.00  
 152    6:40   56.0    54   99.0     3    141.7     5.4    999.0   0.00  
 152    6:50   63.0    54   99.0     2     98.4     4.8    999.0   0.00  
 152    7:00   72.0    54   98.9     2    109.2     3.6    999.0   0.00  
 152    7:10   77.0    54   98.9     1    121.3     3.0    999.0   0.00  
 152    7:20   96.0    55   98.9     2    139.2     4.2    999.0   0.00  
 152    7:30  104.0    55   98.9     2    112.2     4.2    999.0   0.00  
 152    7:40  106.0    55   98.9     2    172.7     4.8    999.0   0.00  
 152    7:50  103.0    55   98.9     2    207.4     5.4    999.0   0.00  
 152    8:00  116.0    55   98.9     3    256.1     5.4    999.0   0.00  
 152    8:10  125.0    55   98.9     4    261.0     6.0    999.0   0.00  
 152    8:20  145.0    55   98.9     4    274.7     6.0    999.0   0.00  
 152    8:30  149.0    55   98.9     3    276.2     5.4    999.0   0.00  
 152    8:40  146.0    55   98.9     3     95.5     6.0    999.0   0.00  
 152    8:50  180.0    56   98.8     1    173.0     3.6    999.0   0.00  
 152    9:00  235.0    57   98.7     2     85.7     4.2    999.0   0.00  
 152    9:10  198.0    56   98.5     3    106.1     5.4    999.0   0.00  
 152    9:20  208.0    56   98.4     3     96.0     4.2    999.0   0.00  
 152    9:30  239.0    57   98.2     3     88.9     5.4    999.0   0.00  
 152    9:40  232.0    57   97.9     4    100.2     6.0    999.0   0.00  
 152    9:50  249.0    57   97.4     3    112.9     4.8    999.0   0.00  
 152   10:00  290.0    58   95.5     3    104.2     4.8    999.0   0.00  
 152   10:10  346.0    60   91.0     3    130.9     4.2    999.0   0.00  
 152   10:20  370.0    60   88.8     3    110.7     5.4    999.0   0.00  
 152   10:30  341.0    61   86.2     3    111.6     5.4    999.0   0.00  
 152   10:40  386.0    61   86.2     2    131.0     4.8    999.0   0.00  
 152   10:50  388.0    61   84.8     4    234.2     8.4    999.0   0.00  
 152   11:00  400.0    58   91.7     7    234.7    10.2    999.0   0.00  
 152   11:10  361.0    57   93.7     9    245.0    12.5    999.0   0.00  
 152   11:20  356.0    56   95.8    10    240.6    13.7    999.0   0.00  
 152   11:30  359.0    56   96.4    10    236.5    13.1    999.0   0.00  
 152   11:40  366.0    56   95.8    10    238.5    14.3    999.0   0.00  
 152   11:50  387.0    56   96.2    10    240.8    14.9    999.0   0.00  
 152   12:00  510.0    57   95.2     9    240.0    13.7    999.0   0.00  
 152   12:10  702.0    58   91.3     9    240.4    12.5    999.0   0.00  
 152   12:20  700.0    58   90.7     9    240.9    12.5    999.0   0.00  
 152   12:30  819.0    58   91.2     8    234.8    11.9    999.0   0.00  
 152   12:40  830.0    63   81.3     4    200.8     9.0    999.0   0.00  
 152   12:50  796.0    67   74.3     3     89.8     5.4    999.0   0.00  
 152   13:00  762.0    68   71.0     3     86.8     7.8    999.0   0.00  
 152   13:10  749.0    68   71.2     4    111.0     6.6    999.0   0.00  
 152   13:20  738.0    67   72.6     4     70.3     8.4    999.0   0.00  
 152   13:30  598.0    64   79.4     5     53.2     9.0    999.0   0.00  
 152   13:40  582.0    63   80.0     4     59.3     6.0    999.0   0.00  
 152   13:50  584.0    63   81.5     6     71.7     9.0    999.0   0.00  
 152   14:00  749.0    62   82.9     6     41.2     9.6    999.0   0.00  
 152   14:10  482.0    63   80.4     6     68.7     8.4    999.0   0.00  
 152   14:20  620.0    63   80.8     4     98.1     9.0    999.0   0.00  
 152   14:30  676.0    66   75.8     4    113.0     7.8    999.0   0.00  
 152   14:40  661.0    65   76.1     5    105.5     8.4    999.0   0.00  
 152   14:50  647.0    64   76.8     6    111.6     9.6    999.0   0.00  
 152   15:00  574.0    64   78.1     5    109.1     8.4    999.0   0.00  
 152   15:10  635.0    64   79.1     4    115.9     6.0    999.0   0.00  
 152   15:20  639.0    65   77.1     4    107.0     7.8    999.0   0.00  
 152   15:30  552.0    63   81.5     4    104.9     7.2    999.0   0.00  
 152   15:40  486.0    63   81.3     4     91.7     6.6    999.0   0.00  
 152   15:50  461.0    63   81.2     4    106.2     7.2    999.0   0.00  
 152   16:00  431.0    62   82.4     4    104.6     7.8    999.0   0.00  
 152   16:10  406.0    61   83.3     4    114.2     7.2    999.0   0.00  
 152   16:20  382.0    62   83.2     4    100.6     7.8    999.0   0.00  
 152   16:30  365.0    62   83.6     3    109.7     6.6    999.0   0.00  
 152   16:40  350.0    62   83.0     3     73.9     5.4    999.0   0.00  
 152   16:50  320.0    61   85.6     4     57.6     6.0    999.0   0.00  
 152   17:00  241.0    60   87.7     3     36.1     6.0    999.0   0.00  

Return to Dakin Peak graphs page.


Western Regional Climate Center,wrcc@dri.edu